createdAt,value
2023-03-27T00:04:45.713Z,10.71
2023-03-27T00:09:51.981Z,10.63
2023-03-27T00:14:55.916Z,10.57
2023-03-27T00:19:59.810Z,10.53
2023-03-27T00:25:06.274Z,10.47
2023-03-27T00:30:11.265Z,10.44
2023-03-27T00:35:16.891Z,10.46
2023-03-27T00:40:21.537Z,10.50
2023-03-27T00:45:32.712Z,10.52
2023-03-27T00:50:42.888Z,10.50
2023-03-27T00:56:02.875Z,10.46
2023-03-27T02:06:25.233Z,10.22
2023-03-27T02:11:36.807Z,10.11
2023-03-27T02:16:49.115Z,10.06
2023-03-27T02:22:13.920Z,10.08
2023-03-27T02:27:58.676Z,10.10
2023-03-27T02:33:23.763Z,10.16
2023-03-27T02:38:39.008Z,10.32
2023-03-27T02:43:53.377Z,10.32
2023-03-27T02:49:11.315Z,10.30
2023-03-27T02:54:21.804Z,10.34
2023-03-27T02:59:35.824Z,10.31
2023-03-27T03:04:46.605Z,10.26
2023-03-27T03:10:09.725Z,10.26
2023-03-27T03:15:14.307Z,10.24
2023-03-27T03:20:18.260Z,10.28
2023-03-27T03:25:27.494Z,10.32
2023-03-27T03:30:32.134Z,10.31
2023-03-27T03:35:43.645Z,10.26
2023-03-27T03:40:57.579Z,10.22
2023-03-27T03:46:02.856Z,10.28
2023-03-27T03:51:11.148Z,10.32
2023-03-27T03:56:15.647Z,10.23
2023-03-27T04:01:21.508Z,10.13
2023-03-27T04:06:32.003Z,10.10
2023-03-27T04:11:38.698Z,10.08
2023-03-27T04:17:02.388Z,10.09
2023-03-27T04:22:07.505Z,10.07
2023-03-27T04:27:13.063Z,10.04
2023-03-27T04:32:33.966Z,10.03
2023-03-27T04:37:57.281Z,10.00
2023-03-27T04:43:11.314Z,9.95
2023-03-27T04:48:21.001Z,9.91
2023-03-27T04:53:30.548Z,9.87
2023-03-27T04:58:41.909Z,9.88
2023-03-27T05:03:52.319Z,9.94
2023-03-27T05:09:12.210Z,9.99
2023-03-27T05:14:20.983Z,10.00
2023-03-27T05:19:45.699Z,10.01
2023-03-27T05:24:50.107Z,10.00
2023-03-27T05:29:56.143Z,9.97
2023-03-27T05:35:00.354Z,9.95
2023-03-27T05:42:52.391Z,9.95
2023-03-27T05:47:59.809Z,9.90
2023-03-27T05:53:12.045Z,9.94
2023-03-27T05:58:39.918Z,10.02
2023-03-27T06:03:43.953Z,10.07
2023-03-27T06:08:56.258Z,10.11
2023-03-27T06:14:00.566Z,10.15
2023-03-27T06:19:26.397Z,10.14
2023-03-27T06:24:30.008Z,10.11
2023-03-27T06:29:37.633Z,10.09
2023-03-27T06:34:42.061Z,10.07
2023-03-27T06:40:10.165Z,10.02
2023-03-27T06:45:18.499Z,9.98
2023-03-27T06:51:04.370Z,9.97
2023-03-27T06:56:08.668Z,10.01
2023-03-27T07:01:32.595Z,10.08
2023-03-27T07:07:12.122Z,10.13
2023-03-27T07:43:10.102Z,10.28
2023-03-27T07:48:16.665Z,10.33
2023-03-27T07:53:33.644Z,10.37
2023-03-27T07:59:02.713Z,10.40
2023-03-27T08:04:20.203Z,10.39
2023-03-27T08:09:47.095Z,10.34
2023-03-27T08:14:51.635Z,10.27
2023-03-27T08:20:11.637Z,10.25
2023-03-27T08:25:25.040Z,10.19
2023-03-27T08:30:31.481Z,10.22
2023-03-27T08:35:36.023Z,10.27
2023-03-27T08:42:52.780Z,10.46
2023-03-27T08:48:16.842Z,10.44
2023-03-27T08:53:24.074Z,10.49
2023-03-27T08:58:27.864Z,10.52
2023-03-27T09:04:30.572Z,10.49
2023-03-27T09:09:56.064Z,10.43
2023-03-27T09:15:05.287Z,10.37
2023-03-27T09:20:21.029Z,10.36
2023-03-27T09:25:34.992Z,10.36
2023-03-27T09:31:25.940Z,10.35
2023-03-27T09:36:29.993Z,10.30
2023-03-27T09:41:42.952Z,10.17
2023-03-27T09:46:52.668Z,10.05
2023-03-27T09:51:59.691Z,9.90
2023-03-27T09:57:17.082Z,9.76
2023-03-27T10:02:27.430Z,9.63
2023-03-27T10:07:31.253Z,9.52
2023-03-27T10:12:56.088Z,9.41
2023-03-27T10:18:22.558Z,9.37
2023-03-27T10:23:28.810Z,9.36
2023-03-27T10:28:37.066Z,9.35
2023-03-27T10:33:57.235Z,9.34
2023-03-27T10:39:33.432Z,9.24
2023-03-27T10:44:54.834Z,9.22
2023-03-27T10:49:58.758Z,9.18
2023-03-27T10:55:30.664Z,9.07
2023-03-27T11:00:51.265Z,8.97
2023-03-27T11:05:56.415Z,8.87
2023-03-27T11:11:33.531Z,8.72
2023-03-27T11:16:44.679Z,8.64
2023-03-27T11:21:58.699Z,8.49
2023-03-27T11:27:05.488Z,8.35
2023-03-27T11:32:29.914Z,8.33
2023-03-27T11:37:44.240Z,8.31
2023-03-27T11:42:48.781Z,8.17
2023-03-27T11:48:33.395Z,8.10
2023-03-27T11:54:07.404Z,8.01
2023-03-27T12:00:03.157Z,7.84
2023-03-27T12:05:33.751Z,7.64
2023-03-27T12:10:47.091Z,7.44
2023-03-27T12:16:17.844Z,7.20
2023-03-27T12:21:45.104Z,7.12
2023-03-27T12:27:30.165Z,6.87
2023-03-27T12:33:00.213Z,6.78
2023-03-27T12:38:23.804Z,6.58
2023-03-27T12:43:52.233Z,6.43
2023-03-27T12:49:06.258Z,6.29
2023-03-27T12:54:25.896Z,6.26
2023-03-27T12:59:34.792Z,6.30
2023-03-27T13:05:26.737Z,6.25
2023-03-27T13:10:58.544Z,6.11
2023-03-27T13:16:20.822Z,6.14
2023-03-27T13:21:41.057Z,6.04
2023-03-27T13:27:10.157Z,6.04
2023-03-27T13:32:38.275Z,6.05
2023-03-27T13:38:03.953Z,6.12
2023-03-27T13:43:26.453Z,6.16
2023-03-27T13:48:50.707Z,6.15
2023-03-27T13:54:31.734Z,6.15
2023-03-27T13:59:35.557Z,6.08
2023-03-27T14:04:50.886Z,6.09
2023-03-27T14:10:17.786Z,6.41
2023-03-27T14:22:43.080Z,6.36
2023-03-27T14:27:55.036Z,6.21
2023-03-27T14:33:10.146Z,6.21
2023-03-27T14:38:29.714Z,6.18
2023-03-27T14:43:34.340Z,6.06
2023-03-27T14:48:42.931Z,6.06
2023-03-27T14:53:51.281Z,5.96
2023-03-27T14:59:02.371Z,5.94
2023-03-27T15:04:16.073Z,5.84
2023-03-27T15:09:24.508Z,5.77
2023-03-27T15:15:06.766Z,5.77
2023-03-27T15:20:14.717Z,5.87
2023-03-27T15:25:29.047Z,5.99
2023-03-27T15:30:32.399Z,5.94
2023-03-27T15:35:39.183Z,5.83
2023-03-27T15:40:46.884Z,5.71
2023-03-27T15:46:02.042Z,5.67
2023-03-27T15:51:08.216Z,5.78
2023-03-27T15:56:14.341Z,5.72
2023-03-27T16:01:26.555Z,5.70
2023-03-27T16:06:36.707Z,5.74
2023-03-27T16:11:48.900Z,5.79
2023-03-27T16:17:15.544Z,5.79
2023-03-27T16:22:33.412Z,5.81
2023-03-27T16:27:54.948Z,5.76
2023-03-27T16:33:02.341Z,5.72
2023-03-27T16:38:05.957Z,5.69
2023-03-27T16:43:09.645Z,5.58
2023-03-27T16:48:13.792Z,5.65
2023-03-27T16:53:17.220Z,5.66
2023-03-27T16:58:21.202Z,5.75
2023-03-27T17:03:24.887Z,5.85
2023-03-27T17:08:30.522Z,5.75
2023-03-27T17:13:34.940Z,5.79
2023-03-27T17:18:38.259Z,5.80
2023-03-27T17:23:43.742Z,5.80
2023-03-27T17:28:48.656Z,5.78
2023-03-27T17:33:52.438Z,5.74
2023-03-27T17:45:20.154Z,5.77
2023-03-27T17:50:24.033Z,5.76
2023-03-27T17:55:27.443Z,5.71
2023-03-27T18:00:32.253Z,5.63
2023-03-27T18:05:40.155Z,5.62
2023-03-27T18:10:48.779Z,5.65
2023-03-27T18:15:57.337Z,5.62
2023-03-27T18:21:01.756Z,5.58
2023-03-27T18:26:06.910Z,5.56
2023-03-27T18:31:12.369Z,5.51
2023-03-27T18:36:16.202Z,5.46
2023-03-27T18:41:19.484Z,5.35
2023-03-27T18:46:22.804Z,5.19
2023-03-27T18:51:26.540Z,5.22
2023-03-27T18:56:29.857Z,5.23
2023-03-27T19:01:35.018Z,5.24
2023-03-27T19:06:39.490Z,5.22
2023-03-27T19:11:44.238Z,5.10
2023-03-27T19:17:06.172Z,5.04
2023-03-27T19:22:15.277Z,4.96
2023-03-27T19:27:24.690Z,4.98
2023-03-27T19:32:28.912Z,4.96
2023-03-27T19:37:32.687Z,4.99
2023-03-27T19:42:36.535Z,4.95
2023-03-27T19:47:39.990Z,4.87
2023-03-27T19:52:49.393Z,4.84
2023-03-27T19:57:57.828Z,4.85
2023-03-27T20:03:02.433Z,4.88
2023-03-27T20:08:06.931Z,4.89
2023-03-27T20:13:10.327Z,4.88
2023-03-27T20:18:13.991Z,4.81
2023-03-27T20:23:17.880Z,4.73
2023-03-27T20:28:21.246Z,4.69
2023-03-27T20:33:24.527Z,4.63
2023-03-27T20:38:31.667Z,4.64
2023-03-27T20:43:35.727Z,4.63
2023-03-27T20:48:53.986Z,4.61
2023-03-27T20:53:58.690Z,4.62
2023-03-27T20:59:02.237Z,4.58
2023-03-27T21:04:07.101Z,4.64
2023-03-27T21:09:14.016Z,4.68
2023-03-27T21:14:17.760Z,4.68
2023-03-27T21:19:21.443Z,4.65
2023-03-27T21:24:24.954Z,4.67
2023-03-27T21:29:28.318Z,4.64
2023-03-27T21:34:31.678Z,4.58
2023-03-27T21:39:35.010Z,4.53
2023-03-27T21:44:38.632Z,4.49
2023-03-27T21:56:02.643Z,4.44
2023-03-27T22:01:06.966Z,4.47
2023-03-27T22:06:13.430Z,4.46
2023-03-27T22:11:17.159Z,4.38
2023-03-27T22:16:20.731Z,4.31
2023-03-27T22:21:27.904Z,4.21
2023-03-27T22:26:37.792Z,4.17
2023-03-27T22:31:41.304Z,4.19
2023-03-27T22:36:44.577Z,4.16
2023-03-27T22:41:47.813Z,4.12
2023-03-27T22:46:53.077Z,4.01
2023-03-27T22:51:56.409Z,3.93
2023-03-27T22:56:59.697Z,3.90
2023-03-27T23:02:03.353Z,3.85
2023-03-27T23:07:06.926Z,3.85
2023-03-27T23:12:10.494Z,3.86
2023-03-27T23:17:14.111Z,3.81
2023-03-27T23:22:17.421Z,3.83
2023-03-27T23:27:20.902Z,3.77
2023-03-27T23:32:24.249Z,3.75
2023-03-27T23:37:28.845Z,3.67
2023-03-27T23:42:32.232Z,3.62
2023-03-27T23:47:35.743Z,3.54
2023-03-27T23:52:38.974Z,3.45
2023-03-27T23:57:42.777Z,3.37
